createdAt,value
2023-02-24T00:01:13.942Z,98190.74
2023-02-24T00:06:15.899Z,98182.67
2023-02-24T00:11:19.263Z,98177.71
2023-02-24T00:16:24.709Z,98171.48
2023-02-24T00:21:28.574Z,98167.39
2023-02-24T00:26:30.675Z,98168.81
2023-02-24T00:31:39.667Z,98160.36
2023-02-24T00:36:43.041Z,98158.35
2023-02-24T00:41:45.697Z,98150.46
2023-02-24T00:46:47.627Z,98143.84
2023-02-24T00:51:49.965Z,98138.23
2023-02-24T00:56:51.922Z,98130.55
2023-02-24T01:01:54.962Z,98123.52
2023-02-24T01:07:00.459Z,98117.83
2023-02-24T01:12:38.452Z,98110.49
2023-02-24T01:17:40.788Z,98101.21
2023-02-24T01:22:51.286Z,98096.92
2023-02-24T01:27:54.102Z,98094.73
2023-02-24T01:32:57.934Z,98091.16
2023-02-24T01:38:01.825Z,98083.39
2023-02-24T01:43:09.057Z,98075.21
2023-02-24T01:48:12.561Z,98072.81
2023-02-24T01:53:15.429Z,98066.23
2023-02-24T01:58:24.717Z,98059.00
2023-02-24T02:03:31.451Z,98055.16
2023-02-24T02:08:36.768Z,98050.67
2023-02-24T02:13:44.797Z,98042.14
2023-02-24T02:19:30.664Z,98041.56
2023-02-24T02:24:44.098Z,98038.92
2023-02-24T02:30:14.070Z,98038.07
2023-02-24T02:35:37.095Z,98031.30
2023-02-24T02:41:23.676Z,98027.14
2023-02-24T02:46:46.795Z,98022.15
2023-02-24T02:51:57.088Z,98016.08
2023-02-24T02:57:20.545Z,98010.38
2023-02-24T03:02:29.638Z,98012.74
2023-02-24T03:07:37.698Z,98008.75
2023-02-24T03:12:42.485Z,98004.10
2023-02-24T03:17:46.622Z,98002.22
2023-02-24T03:22:59.208Z,97998.52
2023-02-24T03:28:11.540Z,97994.88
2023-02-24T03:33:19.996Z,97992.58
2023-02-24T03:38:24.563Z,97990.23
2023-02-24T03:43:31.981Z,97986.30
2023-02-24T03:48:40.672Z,97981.90
2023-02-24T03:54:00.515Z,97972.61
2023-02-24T03:59:18.720Z,97963.73
2023-02-24T04:04:40.861Z,97955.30
2023-02-24T04:10:21.167Z,97950.52
2023-02-24T04:15:35.600Z,97950.77
2023-02-24T04:20:40.036Z,97943.05
2023-02-24T04:25:49.202Z,97939.48
2023-02-24T04:30:58.618Z,97931.30
2023-02-24T04:36:01.568Z,97927.50
2023-02-24T04:41:07.632Z,97913.85
2023-02-24T04:46:13.461Z,97907.66
2023-02-24T04:51:15.787Z,97902.84
2023-02-24T04:56:18.805Z,97895.23
2023-02-24T05:01:21.172Z,97878.41
2023-02-24T05:06:23.827Z,97870.58
2023-02-24T05:11:35.464Z,97861.58
2023-02-24T05:16:38.507Z,97854.50
2023-02-24T05:21:41.817Z,97859.10
2023-02-24T05:26:43.792Z,97853.08
2023-02-24T05:31:46.918Z,97848.84
2023-02-24T05:36:49.621Z,97843.57
2023-02-24T05:41:54.733Z,97841.98
2023-02-24T05:47:00.847Z,97840.69
2023-02-24T05:52:09.765Z,97848.53
2023-02-24T05:57:17.067Z,97854.02
2023-02-24T06:02:27.639Z,97858.33
2023-02-24T06:07:35.014Z,97856.13
2023-02-24T06:12:40.054Z,97853.92
2023-02-24T06:17:42.666Z,97850.52
2023-02-24T06:22:44.812Z,97850.72
2023-02-24T06:27:53.180Z,97845.34
2023-02-24T06:32:56.865Z,97840.70
2023-02-24T06:37:59.513Z,97833.20
2023-02-24T06:43:02.945Z,97828.77
2023-02-24T06:48:07.897Z,97823.48
2023-02-24T06:53:17.028Z,97827.70
2023-02-24T06:58:20.850Z,97828.48
2023-02-24T07:03:40.851Z,97826.09
2023-02-24T07:08:44.227Z,97828.97
2023-02-24T07:13:48.016Z,97822.80
2023-02-24T07:18:54.386Z,97826.82
2023-02-24T07:23:59.119Z,97819.85
2023-02-24T07:29:06.461Z,97815.57
2023-02-24T07:34:08.513Z,97811.06
2023-02-24T07:39:11.847Z,97807.08
2023-02-24T07:44:16.664Z,97805.16
2023-02-24T07:49:29.929Z,97799.20
2023-02-24T07:54:33.257Z,97795.31
2023-02-24T07:59:38.152Z,97786.61
2023-02-24T08:04:44.425Z,97782.17
2023-02-24T08:10:13.939Z,97776.98
2023-02-24T08:15:24.096Z,97773.25
2023-02-24T08:20:36.184Z,97771.39
2023-02-24T08:25:44.629Z,97768.23
2023-02-24T08:30:50.513Z,97760.91
2023-02-24T08:36:02.375Z,97757.89
2023-02-24T08:41:17.843Z,97751.34
2023-02-24T08:46:26.736Z,97749.19
2023-02-24T08:51:35.555Z,97748.56
2023-02-24T08:56:43.425Z,97743.58
2023-02-24T09:02:04.320Z,97734.48
2023-02-24T09:07:15.369Z,97737.90
2023-02-24T09:12:24.969Z,97724.71
2023-02-24T09:17:45.834Z,97725.45
2023-02-24T09:23:04.167Z,97720.99
2023-02-24T09:28:19.925Z,97712.89
2023-02-24T09:33:27.788Z,97706.85
2023-02-24T09:38:52.140Z,97698.11
2023-02-24T09:44:18.305Z,97694.40
2023-02-24T09:49:26.885Z,97696.24
2023-02-24T09:54:35.418Z,97687.25
2023-02-24T10:00:22.831Z,97683.71
2023-02-24T10:05:49.500Z,97677.98
2023-02-24T10:11:22.801Z,97680.37
2023-02-24T10:16:25.770Z,97669.73
2023-02-24T10:21:49.855Z,97655.45
2023-02-24T10:27:16.400Z,97654.84
2023-02-24T10:33:01.570Z,97643.32
2023-02-24T10:38:07.047Z,97605.08
2023-02-24T10:43:20.069Z,97593.95
2023-02-24T10:48:43.349Z,97604.69
2023-02-24T10:54:28.926Z,97606.20
2023-02-24T11:00:32.773Z,97598.84
2023-02-24T11:06:02.199Z,97593.23
2023-02-24T11:11:20.201Z,97584.30
2023-02-24T11:16:51.566Z,97571.71
2023-02-24T11:21:56.298Z,97548.80
2023-02-24T11:26:59.225Z,97528.81
2023-02-24T11:32:23.344Z,97511.42
2023-02-24T11:37:41.875Z,97499.80
2023-02-24T11:43:18.570Z,97501.89
2023-02-24T11:48:57.010Z,97505.43
2023-02-24T11:54:39.318Z,97500.13
2023-02-24T12:00:05.427Z,97489.98
2023-02-24T12:05:18.753Z,97482.99
2023-02-24T12:10:49.021Z,97472.55
2023-02-24T12:16:10.958Z,97469.86
2023-02-24T12:21:41.972Z,97461.70
2023-02-24T12:27:15.526Z,97450.67
2023-02-24T12:32:47.047Z,97438.88
2023-02-24T12:38:30.556Z,97431.77
2023-02-24T12:43:46.159Z,97428.69
2023-02-24T12:49:32.421Z,97415.71
2023-02-24T12:55:19.031Z,97406.56
2023-02-24T13:00:32.180Z,97399.09
2023-02-24T13:05:59.656Z,97394.04
2023-02-24T13:11:16.444Z,97383.08
2023-02-24T13:16:34.307Z,97371.09
2023-02-24T13:21:42.753Z,97365.42
2023-02-24T13:26:57.419Z,97349.92
2023-02-24T13:32:00.887Z,97349.05
2023-02-24T13:37:04.350Z,97344.69
2023-02-24T13:42:30.868Z,97339.45
2023-02-24T13:47:51.594Z,97343.24
2023-02-24T13:53:58.908Z,97331.02
2023-02-24T14:00:01.711Z,97320.25
2023-02-24T14:05:25.522Z,97318.42
2023-02-24T14:10:31.438Z,97317.70
2023-02-24T14:15:53.378Z,97321.77
2023-02-24T14:20:58.942Z,97309.98
2023-02-24T14:26:23.357Z,97305.27
2023-02-24T14:31:28.343Z,97292.35
2023-02-24T14:36:38.188Z,97282.09
2023-02-24T14:41:41.478Z,97273.29
2023-02-24T14:46:55.660Z,97261.21
2023-02-24T14:52:18.533Z,97251.95
2023-02-24T14:57:26.746Z,97247.42
2023-02-24T15:02:33.561Z,97233.39
2023-02-24T15:07:37.473Z,97224.30
2023-02-24T15:12:49.513Z,97222.64
2023-02-24T15:17:56.374Z,97211.53
2023-02-24T15:22:59.106Z,97204.98
2023-02-24T15:28:03.921Z,97195.23
2023-02-24T15:33:14.764Z,97188.65
2023-02-24T15:38:30.781Z,97174.29
2023-02-24T15:43:53.006Z,97172.34
2023-02-24T15:48:57.642Z,97171.23
2023-02-24T15:54:06.340Z,97166.07
2023-02-24T15:59:14.654Z,97163.26
2023-02-24T16:04:23.752Z,97162.47
2023-02-24T16:09:37.337Z,97158.09
2023-02-24T16:14:42.435Z,97148.38
2023-02-24T16:19:48.237Z,97144.85
2023-02-24T16:24:56.413Z,97153.84
2023-02-24T16:30:23.032Z,97159.30
2023-02-24T16:35:28.292Z,97146.56
2023-02-24T16:40:38.709Z,97154.25
2023-02-24T16:45:46.096Z,97156.35
2023-02-24T16:50:49.318Z,97152.18
2023-02-24T16:55:52.181Z,97153.86
2023-02-24T17:01:02.706Z,97136.98
2023-02-24T17:06:06.000Z,97130.92
2023-02-24T17:11:14.439Z,97129.36
2023-02-24T17:16:16.842Z,97129.67
2023-02-24T17:21:20.664Z,97122.16
2023-02-24T17:26:23.994Z,97125.88
2023-02-24T17:31:31.753Z,97125.00
2023-02-24T17:36:35.636Z,97128.45
2023-02-24T17:41:47.116Z,97119.44
2023-02-24T17:46:49.949Z,97109.63
2023-02-24T17:51:52.536Z,97109.38
2023-02-24T17:56:54.605Z,97098.44
2023-02-24T18:02:00.069Z,97092.98
2023-02-24T18:07:05.477Z,97078.85
2023-02-24T18:12:14.487Z,97078.70
2023-02-24T18:17:17.676Z,97074.26
2023-02-24T18:22:21.628Z,97059.41
2023-02-24T18:27:29.172Z,97049.86
2023-02-24T18:32:32.058Z,97046.17
2023-02-24T18:37:34.431Z,97046.85
2023-02-24T18:42:41.529Z,97035.35
2023-02-24T18:47:43.625Z,97031.16
2023-02-24T18:52:45.791Z,97020.05
2023-02-24T18:57:48.585Z,97001.83
2023-02-24T19:02:51.126Z,96994.21
2023-02-24T19:07:53.629Z,96987.81
2023-02-24T19:12:57.013Z,96975.84
2023-02-24T19:18:02.540Z,96967.83
2023-02-24T19:23:06.195Z,96963.41
2023-02-24T19:28:08.614Z,96958.36
2023-02-24T19:33:18.695Z,96953.16
2023-02-24T19:38:22.595Z,96938.31
2023-02-24T19:43:25.017Z,96927.93
2023-02-24T19:48:27.507Z,96916.91
2023-02-24T19:53:30.563Z,96911.58
2023-02-24T19:58:35.901Z,96905.38
2023-02-24T20:03:40.689Z,96899.35
2023-02-24T20:08:42.988Z,96884.02
2023-02-24T20:13:45.949Z,96876.75
2023-02-24T20:18:48.849Z,96866.77
2023-02-24T20:23:54.861Z,96855.61
2023-02-24T20:29:01.067Z,96847.97
2023-02-24T20:34:10.723Z,96839.23
2023-02-24T20:39:15.516Z,96841.33
2023-02-24T20:44:18.096Z,96838.11
2023-02-24T20:49:20.509Z,96843.90
2023-02-24T20:54:23.974Z,96853.83
2023-02-24T20:59:26.752Z,96841.40
2023-02-24T21:04:29.123Z,96815.61
2023-02-24T21:09:37.289Z,96805.59
2023-02-24T21:14:39.651Z,96798.38
2023-02-24T21:19:43.244Z,96788.55
2023-02-24T21:24:45.395Z,96783.98
2023-02-24T21:29:55.177Z,96773.85
2023-02-24T21:35:00.231Z,96775.92
2023-02-24T21:40:11.211Z,96767.48
2023-02-24T21:45:14.141Z,96762.60
2023-02-24T21:50:18.112Z,96748.87
2023-02-24T21:55:26.491Z,96740.60
2023-02-24T22:00:30.344Z,96729.83
2023-02-24T22:05:35.874Z,96732.15
2023-02-24T22:10:40.784Z,96729.85
2023-02-24T22:15:44.308Z,96731.53
2023-02-24T22:20:48.026Z,96746.55
2023-02-24T22:25:50.503Z,96752.05
2023-02-24T22:30:57.682Z,96752.08
2023-02-24T22:36:05.759Z,96736.80
2023-02-24T22:41:14.593Z,96732.50
2023-02-24T22:46:22.022Z,96723.63
2023-02-24T22:51:32.895Z,96713.36
2023-02-24T22:56:36.117Z,96709.36
2023-02-24T23:01:39.744Z,96714.02
2023-02-24T23:06:42.830Z,96716.27
2023-02-24T23:11:46.938Z,96713.21
2023-02-24T23:17:01.510Z,96715.59
2023-02-24T23:22:10.970Z,96719.52
2023-02-24T23:27:13.628Z,96722.02
2023-02-24T23:32:16.892Z,96724.71
2023-02-24T23:37:21.104Z,96709.18
2023-02-24T23:42:24.225Z,96710.15
2023-02-24T23:47:30.709Z,96709.07
2023-02-24T23:52:34.198Z,96709.35
2023-02-24T23:57:37.628Z,96697.98
